Time;durP1;ratioP1;P1;durP2;ratioP2;P2;SDS_P1;SDS_P2;PMS_P1;PMS_P2;Temp;Humidity;BMP_temperature;BMP_pressure;BME280_temperature;BME280_humidity;BME280_pressure;Samples;Min_cycle;Max_cycle;Signal;HPM_P1;HPM_P2
2021/03/03 00:01:44;;;;;;;43.40;15.38;;;4.90;99.90;;;;;;5005822;28;20567;-77
2021/03/03 00:04:10;;;;;;;34.45;15.02;;;4.90;99.90;;;;;;5007525;28;20091;-76
2021/03/03 00:06:35;;;;;;;35.03;14.18;;;4.90;99.90;;;;;;5010958;28;20406;-76
2021/03/03 00:09:01;;;;;;;44.95;16.45;;;4.80;99.90;;;;;;5007971;28;20030;-76
2021/03/03 00:11:26;;;;;;;46.13;16.67;;;4.80;99.90;;;;;;5006235;28;20038;-77
2021/03/03 00:13:52;;;;;;;40.88;15.82;;;4.80;99.90;;;;;;5009275;28;20033;-77
2021/03/03 00:16:18;;;;;;;37.03;15.68;;;4.80;99.90;;;;;;5006991;28;20085;-77
2021/03/03 00:18:43;;;;;;;41.15;15.38;;;4.80;99.90;;;;;;5004955;28;20037;-77
2021/03/03 00:21:09;;;;;;;34.78;14.43;;;4.80;99.90;;;;;;5008854;28;20041;-77
2021/03/03 00:23:34;;;;;;;42.03;15.63;;;4.80;99.90;;;;;;5011899;28;20502;-77
2021/03/03 00:26:00;;;;;;;42.88;14.20;;;4.80;99.90;;;;;;5011721;28;20052;-77
2021/03/03 00:28:26;;;;;;;48.13;15.82;;;4.80;99.90;;;;;;5009742;28;20068;-77
2021/03/03 00:30:51;;;;;;;39.15;15.55;;;4.80;99.90;;;;;;5007926;28;20498;-77
2021/03/03 00:33:17;;;;;;;41.90;14.48;;;4.70;99.90;;;;;;5008009;28;20045;-77
2021/03/03 00:35:42;;;;;;;35.05;13.80;;;4.70;99.90;;;;;;5004862;28;20505;-77
2021/03/03 00:38:08;;;;;;;39.03;15.48;;;4.70;99.90;;;;;;5008650;28;20048;-77
2021/03/03 00:40:33;;;;;;;37.35;15.55;;;4.70;99.90;;;;;;5005528;28;20049;-77
2021/03/03 00:42:59;;;;;;;36.85;14.55;;;4.70;99.90;;;;;;5004925;28;20042;-76
2021/03/03 00:45:25;;;;;;;40.72;15.00;;;4.70;99.90;;;;;;5004093;28;20038;-76
2021/03/03 00:47:50;;;;;;;38.83;14.13;;;4.70;99.90;;;;;;5005723;28;20037;-76
2021/03/03 00:50:16;;;;;;;33.83;15.25;;;4.70;99.90;;;;;;5004500;28;20415;-77
2021/03/03 00:52:42;;;;;;;33.95;13.48;;;4.70;99.90;;;;;;5007713;28;20061;-77
2021/03/03 00:55:08;;;;;;;41.35;15.55;;;4.60;99.90;;;;;;5010661;28;20049;-77
2021/03/03 00:57:34;;;;;;;39.97;15.13;;;4.60;99.90;;;;;;5004327;28;20038;-77
2021/03/03 00:59:59;;;;;;;46.70;14.88;;;4.60;99.90;;;;;;5004837;28;20072;-77
2021/03/03 01:02:25;;;;;;;38.78;15.32;;;4.60;99.90;;;;;;5004093;28;20065;-77
2021/03/03 01:04:50;;;;;;;39.05;15.25;;;4.60;99.90;;;;;;5006644;28;20136;-77
2021/03/03 01:07:16;;;;;;;36.20;14.70;;;4.60;99.90;;;;;;5002620;28;20128;-77
2021/03/03 01:09:41;;;;;;;37.95;14.00;;;4.60;99.90;;;;;;5010796;28;20096;-77
2021/03/03 01:12:07;;;;;;;37.80;15.23;;;4.60;99.90;;;;;;5008432;28;20040;-77
2021/03/03 01:14:33;;;;;;;34.60;14.73;;;4.60;99.90;;;;;;5003682;28;20044;-77
2021/03/03 01:16:59;;;;;;;37.22;13.82;;;4.60;99.90;;;;;;5005307;28;20405;-77
2021/03/03 01:19:24;;;;;;;47.95;15.57;;;4.60;99.90;;;;;;5006740;28;20647;-76
2021/03/03 01:21:50;;;;;;;38.45;14.98;;;4.50;99.90;;;;;;5004675;28;20439;-76
2021/03/03 01:24:15;;;;;;;41.88;15.88;;;4.50;99.90;;;;;;5007658;28;20298;-77
2021/03/03 01:26:41;;;;;;;41.97;15.35;;;4.50;99.90;;;;;;5007069;28;20098;-77
2021/03/03 01:29:07;;;;;;;41.00;15.25;;;4.50;99.90;;;;;;5003350;28;20044;-77
2021/03/03 01:31:33;;;;;;;35.45;14.65;;;4.50;99.90;;;;;;5006192;28;20124;-77
2021/03/03 01:33:59;;;;;;;38.40;14.95;;;4.50;99.90;;;;;;5006931;28;20145;-77
2021/03/03 01:36:25;;;;;;;34.08;14.52;;;4.50;99.90;;;;;;5007031;28;20034;-77
2021/03/03 01:38:51;;;;;;;34.92;13.82;;;4.50;99.90;;;;;;5006561;28;20045;-77
2021/03/03 01:41:16;;;;;;;38.42;14.05;;;4.50;99.90;;;;;;5008122;28;20445;-77
2021/03/03 01:43:42;;;;;;;29.75;14.55;;;4.50;99.90;;;;;;5006007;28;20041;-78
2021/03/03 01:46:07;;;;;;;48.10;15.15;;;4.50;99.90;;;;;;5005271;28;20503;-77
2021/03/03 01:48:33;;;;;;;45.88;15.30;;;4.50;99.90;;;;;;5007577;28;20041;-77
2021/03/03 01:50:59;;;;;;;38.33;15.43;;;4.50;99.90;;;;;;5008404;28;20068;-77
2021/03/03 01:53:24;;;;;;;40.88;15.57;;;4.50;99.90;;;;;;5006493;28;20385;-78
2021/03/03 01:55:53;;;;;;;41.42;15.15;;;4.50;99.90;;;;;;5002525;28;20499;-78
2021/03/03 01:58:19;;;;;;;37.25;15.00;;;4.50;99.90;;;;;;5012367;28;20141;-77
2021/03/03 02:00:44;;;;;;;36.35;14.30;;;4.40;99.90;;;;;;5001406;28;20049;-76
2021/03/03 02:03:10;;;;;;;44.85;15.45;;;4.40;99.90;;;;;;5003355;28;20044;-76
2021/03/03 02:05:35;;;;;;;40.40;13.55;;;4.40;99.90;;;;;;5003409;28;20107;-76
2021/03/03 02:08:12;;;;;;;45.42;14.35;;;4.40;99.90;;;;;;5001706;28;20045;-76
2021/03/03 02:10:46;;;;;;;41.17;14.35;;;4.40;99.90;;;;;;5000964;28;20072;-77
2021/03/03 02:13:17;;;;;;;;;;;4.40;99.90;;;;;;5003243;28;20509;-77
2021/03/03 02:15:45;;;;;;;38.42;14.20;;;4.40;99.90;;;;;;5003620;28;20309;-77
2021/03/03 02:18:12;;;;;;;41.10;13.65;;;4.40;99.90;;;;;;4999308;28;20049;-77
2021/03/03 02:20:47;;;;;;;40.63;14.93;;;4.40;99.90;;;;;;5001858;28;20048;-76
2021/03/03 02:23:42;;;;;;;38.90;13.63;;;4.40;99.90;;;;;;5001164;28;20041;-76
2021/03/03 02:26:07;;;;;;;;;;;4.40;99.90;;;;;;4981892;28;20034;-77
2021/03/03 02:28:34;;;;;;;40.90;13.85;;;4.40;99.90;;;;;;5014975;28;20312;-77
2021/03/03 02:31:00;;;;;;;34.83;14.52;;;4.40;99.90;;;;;;5001602;28;20038;-76
2021/03/03 02:33:26;;;;;;;39.13;15.27;;;4.40;99.90;;;;;;5003012;28;20033;-77
2021/03/03 02:35:53;;;;;;;40.05;14.48;;;4.40;99.90;;;;;;5001458;28;20037;-76
2021/03/03 02:38:19;;;;;;;34.95;14.70;;;4.40;99.90;;;;;;5003138;28;20532;-77
2021/03/03 02:40:45;;;;;;;39.30;15.57;;;4.30;99.90;;;;;;5014096;28;20041;-77
2021/03/03 02:43:14;;;;;;;41.45;15.10;;;4.40;99.90;;;;;;5002358;28;20037;-77
2021/03/03 02:45:40;;;;;;;30.90;12.88;;;4.40;99.90;;;;;;5001083;28;20038;-77
2021/03/03 02:48:08;;;;;;;48.20;14.70;;;4.30;99.90;;;;;;5000400;28;20052;-77
2021/03/03 02:50:34;;;;;;;36.58;13.52;;;4.30;99.90;;;;;;5002465;28;20049;-77
2021/03/03 02:53:00;;;;;;;38.85;15.02;;;4.30;99.90;;;;;;5002941;28;20038;-76
2021/03/03 02:55:27;;;;;;;42.92;14.85;;;4.30;99.90;;;;;;5002548;28;20048;-77
2021/03/03 02:57:53;;;;;;;38.63;14.20;;;4.30;99.90;;;;;;5002225;28;20034;-77
2021/03/03 03:00:31;;;;;;;45.97;14.73;;;4.30;99.90;;;;;;5002285;28;20041;-78
2021/03/03 03:03:03;;;;;;;33.08;14.20;;;4.20;99.90;;;;;;5004854;28;20056;-77
2021/03/03 03:05:30;;;;;;;39.55;14.35;;;4.20;99.90;;;;;;5005322;28;20041;-78
2021/03/03 03:07:58;;;;;;;38.83;15.43;;;4.30;99.90;;;;;;5006797;28;20034;-78
2021/03/03 03:10:25;;;;;;;37.55;14.55;;;4.30;99.90;;;;;;5004352;28;20133;-78
2021/03/03 03:12:54;;;;;;;42.83;15.25;;;4.30;99.90;;;;;;5005183;28;20046;-78
2021/03/03 03:15:24;;;;;;;45.10;15.73;;;4.20;99.90;;;;;;5004834;28;20048;-78
2021/03/03 03:17:53;;;;;;;46.22;15.85;;;4.30;99.90;;;;;;5008858;28;20522;-78
2021/03/03 03:20:20;;;;;;;43.42;15.48;;;4.30;99.90;;;;;;5005079;28;20556;-78
2021/03/03 03:22:47;;;;;;;39.03;16.30;;;4.20;99.90;;;;;;5004374;28;20039;-78
2021/03/03 03:25:14;;;;;;;33.88;14.73;;;4.20;99.90;;;;;;5004417;28;20041;-78
2021/03/03 03:27:44;;;;;;;37.55;14.40;;;4.20;99.90;;;;;;5005071;28;20041;-78
2021/03/03 03:30:12;;;;;;;44.30;14.63;;;4.30;99.90;;;;;;5004314;28;20120;-78
2021/03/03 03:32:39;;;;;;;41.00;15.40;;;4.30;99.90;;;;;;5007865;28;20624;-78
2021/03/03 03:35:05;;;;;;;38.70;14.55;;;4.20;99.90;;;;;;5003508;28;20407;-78
2021/03/03 03:37:31;;;;;;;39.38;15.63;;;4.20;99.90;;;;;;5008986;28;20076;-78
2021/03/03 03:39:56;;;;;;;33.25;14.27;;;4.20;99.90;;;;;;5006403;28;20132;-77
2021/03/03 03:42:24;;;;;;;39.20;14.63;;;4.20;99.90;;;;;;5011118;28;20029;-78
2021/03/03 03:44:51;;;;;;;41.65;15.05;;;4.20;99.90;;;;;;5003635;28;20033;-78
2021/03/03 03:47:18;;;;;;;39.95;15.82;;;4.20;99.90;;;;;;5004461;28;20536;-76
2021/03/03 03:49:45;;;;;;;43.33;15.00;;;4.20;99.90;;;;;;5005882;28;20045;-76
2021/03/03 03:52:17;;;;;;;38.10;15.32;;;4.20;99.90;;;;;;5003176;28;20045;-77
2021/03/03 03:54:50;;;;;;;34.50;14.07;;;4.10;99.90;;;;;;5006665;28;20131;-77
2021/03/03 03:57:16;;;;;;;36.60;15.17;;;4.10;99.90;;;;;;5001859;28;20567;-77
2021/03/03 03:59:42;;;;;;;34.28;15.07;;;4.10;99.90;;;;;;5001173;28;20136;-77
2021/03/03 04:02:08;;;;;;;43.67;16.77;;;4.10;99.90;;;;;;5005945;28;20044;-77
2021/03/03 04:04:33;;;;;;;33.80;15.95;;;4.20;99.90;;;;;;4999166;28;20113;-78
2021/03/03 04:06:59;;;;;;;37.92;15.05;;;4.10;99.90;;;;;;4999133;28;20133;-76
2021/03/03 04:09:25;;;;;;;49.88;15.52;;;4.10;99.90;;;;;;4998908;28;20033;-76
2021/03/03 04:11:50;;;;;;;47.28;15.80;;;4.10;99.90;;;;;;5000204;28;20046;-76
2021/03/03 04:14:16;;;;;;;36.25;14.80;;;4.10;99.90;;;;;;5000444;28;20678;-76
2021/03/03 04:16:41;;;;;;;39.67;15.07;;;4.10;99.90;;;;;;5005985;28;20088;-77
2021/03/03 04:19:07;;;;;;;41.08;16.30;;;4.10;99.90;;;;;;4999497;28;20037;-76
2021/03/03 04:21:32;;;;;;;44.22;13.88;;;4.10;99.90;;;;;;5005465;28;20069;-76
2021/03/03 04:23:58;;;;;;;40.40;15.43;;;4.00;99.90;;;;;;5003148;28;20038;-76
2021/03/03 04:26:23;;;;;;;43.03;16.15;;;4.10;99.90;;;;;;5007081;28;20096;-77
2021/03/03 04:28:49;;;;;;;45.67;17.33;;;4.10;99.90;;;;;;5009624;28;20175;-77
2021/03/03 04:31:14;;;;;;;40.67;16.00;;;4.00;99.90;;;;;;5007483;28;20136;-76
2021/03/03 04:33:40;;;;;;;50.92;15.55;;;4.00;99.90;;;;;;5004984;28;20511;-76
2021/03/03 04:36:06;;;;;;;40.67;15.90;;;4.00;99.90;;;;;;5008185;28;20085;-76
2021/03/03 04:38:32;;;;;;;40.42;15.93;;;4.00;99.90;;;;;;5004557;28;20041;-76
2021/03/03 04:40:57;;;;;;;47.65;17.60;;;4.00;99.90;;;;;;5008392;28;20172;-76
2021/03/03 04:43:23;;;;;;;45.40;16.60;;;4.00;99.90;;;;;;5006687;28;20046;-76
2021/03/03 04:45:48;;;;;;;34.45;14.40;;;4.00;99.90;;;;;;5008440;28;20076;-76
2021/03/03 04:48:14;;;;;;;43.85;16.48;;;4.00;99.90;;;;;;5004007;28;20045;-76
2021/03/03 04:50:39;;;;;;;44.55;17.45;;;4.00;99.90;;;;;;5004658;28;20420;-76
2021/03/03 04:53:05;;;;;;;40.33;15.93;;;4.00;99.90;;;;;;5006794;28;20033;-76
2021/03/03 04:55:31;;;;;;;38.20;15.70;;;4.00;99.90;;;;;;5004724;28;20041;-76
2021/03/03 04:57:56;;;;;;;35.58;16.38;;;4.00;99.90;;;;;;5013835;28;20067;-76
2021/03/03 05:00:22;;;;;;;38.92;16.02;;;4.00;99.90;;;;;;5003578;28;20616;-76
2021/03/03 05:02:48;;;;;;;39.28;15.70;;;4.00;99.90;;;;;;5014327;28;20054;-77
2021/03/03 05:05:14;;;;;;;47.05;17.35;;;4.00;99.90;;;;;;5010704;28;20038;-76
2021/03/03 05:07:39;;;;;;;51.90;15.90;;;4.00;99.90;;;;;;5006028;28;20510;-76
2021/03/03 05:10:06;;;;;;;40.25;16.50;;;4.00;99.90;;;;;;5004614;28;20415;-76
2021/03/03 05:12:31;;;;;;;51.05;16.35;;;4.00;99.90;;;;;;5006033;28;20052;-76
2021/03/03 05:14:57;;;;;;;38.13;16.05;;;4.00;99.90;;;;;;5001653;28;20610;-76
2021/03/03 05:17:22;;;;;;;38.15;17.05;;;4.10;99.90;;;;;;5014272;28;20045;-76
2021/03/03 05:19:48;;;;;;;40.85;15.23;;;4.00;99.90;;;;;;5007595;28;20049;-76
2021/03/03 05:22:14;;;;;;;38.30;15.52;;;4.00;99.90;;;;;;5008825;28;20408;-76
2021/03/03 05:24:39;;;;;;;40.28;15.90;;;4.10;99.90;;;;;;5005202;28;20033;-76
2021/03/03 05:27:05;;;;;;;46.85;15.68;;;4.00;99.90;;;;;;5003620;28;20570;-77
2021/03/03 05:29:31;;;;;;;34.15;14.90;;;4.10;99.90;;;;;;5005580;28;20585;-77
2021/03/03 05:31:57;;;;;;;36.97;16.02;;;4.10;99.90;;;;;;5004984;28;20044;-76
2021/03/03 05:34:23;;;;;;;45.97;15.07;;;4.10;99.90;;;;;;5004925;28;20061;-77
2021/03/03 05:36:48;;;;;;;34.13;14.57;;;4.10;99.90;;;;;;5006710;28;20120;-77
2021/03/03 05:39:15;;;;;;;41.85;15.52;;;4.10;99.90;;;;;;5008888;28;20066;-77
2021/03/03 05:41:41;;;;;;;44.15;15.65;;;4.10;99.90;;;;;;5009483;28;20493;-77
2021/03/03 05:44:08;;;;;;;42.60;15.93;;;4.10;99.90;;;;;;5007269;28;20178;-77
2021/03/03 05:46:36;;;;;;;43.15;13.90;;;4.10;99.90;;;;;;5009498;28;20115;-77
2021/03/03 05:49:03;;;;;;;42.53;15.15;;;4.10;99.90;;;;;;5007231;28;20057;-76
2021/03/03 05:51:31;;;;;;;36.67;15.13;;;4.20;99.90;;;;;;5010168;28;20522;-77
2021/03/03 05:53:58;;;;;;;41.53;14.63;;;4.10;99.90;;;;;;5008133;28;20229;-77
2021/03/03 05:56:25;;;;;;;43.90;14.50;;;4.00;99.90;;;;;;5005906;28;20068;-77
2021/03/03 05:58:52;;;;;;;43.92;15.48;;;4.10;99.90;;;;;;5008218;28;20078;-77
2021/03/03 06:01:19;;;;;;;42.63;15.38;;;4.10;99.90;;;;;;5007592;28;20091;-76
2021/03/03 06:03:45;;;;;;;41.92;14.82;;;4.10;99.90;;;;;;5009744;28;20068;-77
2021/03/03 06:06:11;;;;;;;37.97;13.93;;;4.10;99.90;;;;;;5001865;28;20476;-76
2021/03/03 06:08:37;;;;;;;42.85;16.38;;;4.10;99.90;;;;;;5003581;28;20044;-77
2021/03/03 06:11:03;;;;;;;38.95;14.98;;;4.10;99.90;;;;;;5002676;28;20037;-76
2021/03/03 06:13:30;;;;;;;41.45;15.43;;;4.10;99.90;;;;;;5001427;28;20061;-76
2021/03/03 06:15:55;;;;;;;41.60;14.35;;;4.10;99.90;;;;;;5004027;28;20045;-76
2021/03/03 06:18:22;;;;;;;39.55;14.93;;;4.10;99.90;;;;;;5005575;28;20037;-76
2021/03/03 06:20:51;;;;;;;36.08;14.05;;;4.20;99.90;;;;;;5003609;28;20046;-75
2021/03/03 06:23:27;;;;;;;44.22;15.65;;;4.20;99.90;;;;;;5003568;28;20491;-75
2021/03/03 06:25:55;;;;;;;44.25;15.50;;;4.20;99.90;;;;;;5003613;28;20045;-75
2021/03/03 06:28:35;;;;;;;46.00;15.60;;;4.20;99.90;;;;;;4995089;28;20040;-76
2021/03/03 06:31:22;;;;;;;46.90;15.93;;;4.30;99.90;;;;;;4998661;28;20070;-76
2021/03/03 06:33:47;;;;;;;38.55;17.52;;;4.30;99.90;;;;;;5004251;28;20125;-76
2021/03/03 06:36:29;;;;;;;41.65;16.55;;;4.40;99.90;;;;;;5000137;28;20044;-76
2021/03/03 06:38:55;;;;;;;50.88;15.88;;;4.40;99.90;;;;;;5000174;28;20044;-76
2021/03/03 06:41:21;;;;;;;44.53;17.75;;;4.40;99.90;;;;;;5002638;28;20046;-81
2021/03/03 06:43:57;;;;;;;45.25;16.38;;;4.50;99.90;;;;;;5002141;28;20410;-77
2021/03/03 06:46:23;;;;;;;44.75;15.95;;;4.50;99.90;;;;;;5000423;28;20033;-78
2021/03/03 06:48:49;;;;;;;39.75;16.13;;;4.60;99.90;;;;;;5004377;28;20518;-78
2021/03/03 06:51:38;;;;;;;44.20;16.83;;;4.60;99.90;;;;;;5003309;28;20042;-78
2021/03/03 06:54:17;;;;;;;39.05;15.63;;;4.70;99.90;;;;;;4999045;28;20038;-80
2021/03/03 06:56:44;;;;;;;52.33;16.65;;;4.80;99.90;;;;;;5001456;28;20045;-80
2021/03/03 06:59:19;;;;;;;43.42;16.10;;;4.80;99.90;;;;;;5004619;28;20037;-80
2021/03/03 07:01:49;;;;;;;55.67;17.35;;;4.90;99.90;;;;;;5005969;28;20145;-80
2021/03/03 07:04:24;;;;;;;47.53;15.85;;;5.00;99.90;;;;;;5000873;28;20042;-79
2021/03/03 07:06:51;;;;;;;37.50;15.27;;;5.00;99.90;;;;;;5011100;28;20034;-79
2021/03/03 07:09:18;;;;;;;37.05;15.18;;;5.10;99.90;;;;;;5003719;28;20049;-79
2021/03/03 07:11:44;;;;;;;46.03;16.08;;;5.20;99.90;;;;;;5005001;28;20041;-80
2021/03/03 07:14:21;;;;;;;48.50;18.00;;;5.30;99.90;;;;;;5018118;28;20764;-79
2021/03/03 07:17:06;;;;;;;37.03;16.38;;;5.30;99.90;;;;;;5004804;28;20037;-79
2021/03/03 07:19:35;;;;;;;39.58;15.85;;;5.40;99.90;;;;;;5002193;28;20096;-79
2021/03/03 07:22:01;;;;;;;45.13;16.55;;;5.40;99.90;;;;;;5002079;28;20128;-78
2021/03/03 07:24:27;;;;;;;58.90;17.83;;;5.50;99.90;;;;;;5007420;28;20033;-79
2021/03/03 07:26:53;;;;;;;48.53;17.77;;;5.60;99.90;;;;;;5002637;28;20041;-79
2021/03/03 07:29:19;;;;;;;48.88;18.10;;;5.70;99.90;;;;;;5006367;28;20041;-77
2021/03/03 07:31:45;;;;;;;60.20;18.13;;;5.80;99.90;;;;;;5005215;28;20051;-78
2021/03/03 07:34:10;;;;;;;61.33;17.08;;;5.90;99.90;;;;;;5005909;28;20037;-79
2021/03/03 07:36:38;;;;;;;45.80;16.35;;;6.00;99.90;;;;;;5003847;28;20405;-78
2021/03/03 07:39:05;;;;;;;64.03;18.52;;;6.10;99.90;;;;;;4998408;28;20555;-78
2021/03/03 07:41:41;;;;;;;47.83;17.20;;;6.20;99.90;;;;;;5000937;28;20050;-79
2021/03/03 07:44:09;;;;;;;44.47;16.98;;;6.20;99.90;;;;;;4997912;28;20114;-77
2021/03/03 07:46:37;;;;;;;49.63;18.23;;;6.30;99.90;;;;;;5005739;28;20482;-78
2021/03/03 07:49:03;;;;;;;59.35;16.55;;;6.40;99.90;;;;;;5003123;28;20494;-79
2021/03/03 07:51:28;;;;;;;50.65;17.92;;;6.50;99.90;;;;;;5002598;28;20080;-80
2021/03/03 07:53:55;;;;;;;47.08;16.35;;;6.50;99.90;;;;;;5013541;28;20049;-80
2021/03/03 07:56:21;;;;;;;57.75;17.67;;;6.60;99.90;;;;;;5008605;28;20037;-79
2021/03/03 07:58:48;;;;;;;49.90;17.98;;;6.60;99.90;;;;;;5010726;28;20065;-79
2021/03/03 08:01:13;;;;;;;49.30;17.50;;;6.80;99.90;;;;;;5014044;28;20045;-80
2021/03/03 08:03:46;;;;;;;51.08;17.58;;;6.80;99.70;;;;;;5014954;28;20053;-80
2021/03/03 08:06:21;;;;;;;51.90;17.05;;;6.90;99.20;;;;;;5000592;28;20061;-80
2021/03/03 08:09:05;;;;;;;41.85;16.55;;;7.00;99.50;;;;;;5000880;28;20052;-79
2021/03/03 08:11:32;;;;;;;48.85;16.23;;;7.10;97.60;;;;;;5014416;28;20037;-80
2021/03/03 08:13:58;;;;;;;50.42;17.38;;;7.10;96.30;;;;;;5003799;28;20037;-80
2021/03/03 08:16:23;;;;;;;39.58;16.23;;;7.20;96.40;;;;;;5001249;28;20115;-80
2021/03/03 08:18:49;;;;;;;54.63;18.10;;;7.30;95.60;;;;;;5002131;28;20132;-81
2021/03/03 08:21:14;;;;;;;53.75;17.45;;;7.40;95.10;;;;;;5018561;28;20410;-80
2021/03/03 08:23:46;;;;;;;61.47;18.42;;;7.40;94.60;;;;;;5002803;28;20573;-81
2021/03/03 08:26:14;;;;;;;53.67;18.08;;;7.40;94.00;;;;;;5011490;28;20132;-81
2021/03/03 08:28:46;;;;;;;57.78;19.38;;;7.60;94.00;;;;;;5001583;28;20049;-79
2021/03/03 08:31:15;;;;;;;57.10;17.67;;;7.50;93.00;;;;;;5003362;28;20120;-80
2021/03/03 08:33:43;;;;;;;78.45;19.65;;;7.60;92.50;;;;;;5003332;28;20049;-79
2021/03/03 08:36:31;;;;;;;49.70;17.77;;;7.70;92.80;;;;;;5002458;28;20040;-78
2021/03/03 08:38:56;;;;;;;47.92;17.25;;;7.80;92.70;;;;;;5005954;28;20045;-79
2021/03/03 08:41:28;;;;;;;50.92;18.15;;;7.80;91.10;;;;;;5001407;28;20221;-79
2021/03/03 08:44:10;;;;;;;54.50;18.17;;;7.80;90.40;;;;;;5015430;28;20061;-79
2021/03/03 08:46:42;;;;;;;51.95;17.30;;;8.00;90.30;;;;;;5004502;28;20034;-79
2021/03/03 08:49:07;;;;;;;61.85;18.08;;;8.00;89.10;;;;;;5007256;28;20162;-79
2021/03/03 08:51:45;;;;;;;41.53;16.42;;;8.10;88.40;;;;;;5001507;28;20826;-78
2021/03/03 08:54:15;;;;;;;57.08;17.25;;;8.10;87.10;;;;;;5011549;28;20073;-79
2021/03/03 08:56:52;;;;;;;58.28;16.85;;;8.20;86.20;;;;;;5000818;28;20062;-79
2021/03/03 08:59:42;;;;;;;48.92;16.40;;;8.30;86.00;;;;;;5000652;28;20124;-79
2021/03/03 09:02:18;;;;;;;46.97;15.68;;;8.30;85.50;;;;;;5002576;28;20116;-79
2021/03/03 09:04:46;;;;;;;46.60;16.98;;;8.40;85.00;;;;;;5002258;28;20526;-80
2021/03/03 09:07:18;;;;;;;50.53;17.27;;;8.60;84.40;;;;;;5001881;28;20049;-79
2021/03/03 09:09:46;;;;;;;45.08;17.73;;;8.60;83.80;;;;;;5001213;28;20203;-80
2021/03/03 09:12:14;;;;;;;55.67;18.05;;;8.60;82.80;;;;;;5006439;28;20843;-79
2021/03/03 09:14:41;;;;;;;60.67;18.67;;;8.70;82.20;;;;;;5000125;28;20117;-79
2021/03/03 09:17:10;;;;;;;46.75;16.50;;;8.70;81.70;;;;;;5005444;28;20042;-80
2021/03/03 09:19:37;;;;;;;51.33;17.30;;;8.70;82.10;;;;;;5001136;28;20042;-80
2021/03/03 09:22:26;;;;;;;51.67;17.13;;;8.90;81.50;;;;;;5001805;28;20717;-80
2021/03/03 09:24:55;;;;;;;50.28;18.00;;;9.00;79.90;;;;;;5013843;28;20030;-81
2021/03/03 09:27:22;;;;;;;44.92;17.35;;;9.10;79.50;;;;;;5001374;28;20379;-79
2021/03/03 09:29:49;;;;;;;45.72;18.27;;;9.00;79.30;;;;;;5001059;28;20038;-79
2021/03/03 09:32:20;;;;;;;52.53;17.20;;;9.10;79.00;;;;;;4999721;28;20030;-81
2021/03/03 09:35:02;;;;;;;56.50;16.80;;;9.10;78.90;;;;;;5007851;28;20045;-80
2021/03/03 09:37:35;;;;;;;49.60;17.85;;;9.20;78.40;;;;;;5001016;28;20048;-82
2021/03/03 09:40:01;;;;;;;45.97;16.23;;;9.30;77.50;;;;;;5001728;28;20030;-80
2021/03/03 09:42:35;;;;;;;46.28;16.40;;;9.40;77.00;;;;;;5001982;28;20029;-78
2021/03/03 09:45:01;;;;;;;48.15;17.02;;;9.40;76.90;;;;;;5008955;28;20042;-78
2021/03/03 09:47:35;;;;;;;59.03;16.98;;;9.50;76.00;;;;;;5007066;28;20079;-81
2021/03/03 09:50:06;;;;;;;49.55;16.65;;;9.50;75.60;;;;;;5009081;28;20328;-79
2021/03/03 09:52:41;;;;;;;66.82;16.85;;;9.60;75.30;;;;;;5018803;28;20067;-80
2021/03/03 09:55:08;;;;;;;;;;;9.80;74.30;;;;;;5006596;28;20109;-80
2021/03/03 09:57:34;;;;;;;52.80;15.98;;;10.00;73.20;;;;;;5001839;28;19917;-80
2021/03/03 09:59:59;;;;;;;45.05;17.60;;;9.90;73.50;;;;;;5007441;28;20092;-81
2021/03/03 10:02:28;;;;;;;61.67;18.85;;;10.00;71.90;;;;;;5006541;28;20133;-78
2021/03/03 10:04:55;;;;;;;53.53;16.42;;;10.10;71.60;;;;;;5008049;28;20033;-80
2021/03/03 10:07:23;;;;;;;58.45;19.08;;;10.20;71.00;;;;;;5010835;28;20037;-79
2021/03/03 10:09:55;;;;;;;52.63;18.48;;;10.20;70.60;;;;;;5004523;28;20041;-81
2021/03/03 10:12:26;;;;;;;57.92;17.52;;;10.20;70.70;;;;;;5004447;28;20489;-79
2021/03/03 10:14:53;;;;;;;53.17;16.88;;;10.30;70.70;;;;;;5005948;28;20410;-81
2021/03/03 10:17:29;;;;;;;43.70;17.17;;;10.30;70.40;;;;;;5012965;28;20590;-79
2021/03/03 10:19:55;;;;;;;50.03;17.63;;;10.50;69.90;;;;;;5000169;28;20209;-79
2021/03/03 10:22:21;;;;;;;50.42;17.92;;;10.50;69.50;;;;;;5002004;28;20573;-79
2021/03/03 10:24:57;;;;;;;60.03;16.67;;;10.60;69.30;;;;;;5005205;28;20503;-80
2021/03/03 10:27:23;;;;;;;42.45;16.48;;;10.60;68.80;;;;;;5003067;28;20079;-79
2021/03/03 10:29:48;;;;;;;44.10;17.25;;;10.80;68.60;;;;;;5001021;28;20050;-79
2021/03/03 10:32:15;;;;;;;55.58;17.20;;;11.00;68.00;;;;;;5003338;28;20033;-80
2021/03/03 10:34:41;;;;;;;65.50;19.02;;;11.10;67.50;;;;;;5004088;28;20042;-78
2021/03/03 10:37:07;;;;;;;48.80;16.90;;;11.20;66.90;;;;;;5005353;28;20038;-79
2021/03/03 10:39:34;;;;;;;47.15;18.63;;;11.30;65.20;;;;;;5007318;28;20111;-79
2021/03/03 10:42:06;;;;;;;54.75;18.73;;;11.60;65.30;;;;;;5003447;28;20498;-79
2021/03/03 10:44:42;;;;;;;53.20;17.58;;;11.60;64.40;;;;;;5003009;28;20629;-78
2021/03/03 10:47:09;;;;;;;47.38;17.30;;;11.80;62.90;;;;;;5007297;28;20111;-78
2021/03/03 10:49:39;;;;;;;39.63;16.38;;;11.90;62.80;;;;;;5002168;28;20172;-77
2021/03/03 10:52:20;;;;;;;56.75;17.77;;;11.90;61.60;;;;;;5007278;28;20042;-77
2021/03/03 10:54:45;;;;;;;43.92;17.38;;;12.10;61.10;;;;;;5002711;28;20551;-77
2021/03/03 10:57:11;;;;;;;44.10;17.73;;;12.10;61.00;;;;;;5002919;28;20042;-79
2021/03/03 10:59:38;;;;;;;43.05;16.65;;;12.10;60.70;;;;;;5005164;28;20110;-78
2021/03/03 11:02:06;;;;;;;39.15;16.13;;;12.40;60.80;;;;;;5008585;28;20030;-78
2021/03/03 11:04:41;;;;;;;45.83;17.80;;;12.30;60.00;;;;;;5008864;28;20046;-77
2021/03/03 11:07:08;;;;;;;40.10;17.02;;;12.40;60.10;;;;;;5011511;28;20051;-78
2021/03/03 11:09:35;;;;;;;48.10;17.67;;;12.30;60.30;;;;;;5001658;28;20437;-77
2021/03/03 11:12:02;;;;;;;53.03;17.33;;;12.40;60.40;;;;;;5005475;28;20065;-76
2021/03/03 11:14:28;;;;;;;50.10;19.05;;;12.50;60.10;;;;;;5001497;28;20045;-76
2021/03/03 11:16:59;;;;;;;55.17;18.30;;;12.50;59.90;;;;;;5006104;28;20063;-77
2021/03/03 11:19:25;;;;;;;34.88;16.85;;;12.40;59.70;;;;;;5010361;28;20084;-76
2021/03/03 11:21:52;;;;;;;51.00;17.77;;;12.30;59.60;;;;;;5002406;28;20057;-77
2021/03/03 11:24:18;;;;;;;39.08;17.85;;;12.50;60.00;;;;;;5003398;28;20041;-79
2021/03/03 11:26:44;;;;;;;52.08;16.42;;;12.70;59.70;;;;;;5001679;28;20555;-77
2021/03/03 11:29:11;;;;;;;48.03;18.50;;;12.70;59.10;;;;;;5003824;28;20053;-78
2021/03/03 11:31:37;;;;;;;47.92;18.58;;;12.70;58.30;;;;;;5007814;28;20417;-78
2021/03/03 11:34:04;;;;;;;44.42;18.13;;;12.80;57.80;;;;;;5015695;28;20049;-78
2021/03/03 11:36:30;;;;;;;55.78;17.77;;;12.80;57.20;;;;;;5006890;28;20052;-76
2021/03/03 11:38:55;;;;;;;41.33;17.60;;;12.80;56.90;;;;;;5005840;28;20069;-76
2021/03/03 11:41:22;;;;;;;56.22;17.73;;;12.90;57.00;;;;;;5004950;28;20089;-77
2021/03/03 11:43:47;;;;;;;40.90;17.88;;;13.00;56.70;;;;;;5005267;28;20514;-77
2021/03/03 11:46:13;;;;;;;40.08;17.30;;;13.00;56.50;;;;;;5014427;28;20041;-77
2021/03/03 11:48:39;;;;;;;47.47;17.95;;;13.10;55.90;;;;;;5006297;28;20040;-78
2021/03/03 11:51:05;;;;;;;36.80;16.67;;;13.10;55.70;;;;;;5006457;28;20042;-78
2021/03/03 11:53:30;;;;;;;48.10;17.70;;;13.20;55.60;;;;;;5006700;28;20037;-77
2021/03/03 11:55:56;;;;;;;41.47;15.73;;;13.30;55.50;;;;;;5023086;28;20130;-77
2021/03/03 11:58:22;;;;;;;39.03;18.15;;;13.20;55.10;;;;;;5004842;28;20057;-78
2021/03/03 12:00:47;;;;;;;46.85;18.45;;;13.10;55.30;;;;;;5005927;28;20734;-78
2021/03/03 12:03:13;;;;;;;43.13;16.75;;;13.10;55.50;;;;;;5006867;28;20061;-77
2021/03/03 12:05:38;;;;;;;46.70;17.92;;;13.10;56.00;;;;;;5006612;28;20061;-79
2021/03/03 12:08:06;;;;;;;50.22;19.20;;;13.20;55.40;;;;;;5004989;28;20045;-79
2021/03/03 12:10:33;;;;;;;48.90;17.00;;;13.20;55.50;;;;;;5010050;28;20038;-80
2021/03/03 12:12:59;;;;;;;50.60;17.52;;;13.30;55.40;;;;;;5007479;28;20517;-78
2021/03/03 12:15:25;;;;;;;44.25;17.38;;;13.30;55.90;;;;;;5008824;28;20124;-79
2021/03/03 12:17:50;;;;;;;39.30;16.92;;;13.30;55.10;;;;;;5018691;28;20506;-80
2021/03/03 12:20:16;;;;;;;39.30;16.55;;;13.20;55.30;;;;;;5011008;28;20045;-81
2021/03/03 12:22:42;;;;;;;37.72;18.02;;;13.20;55.90;;;;;;5011091;28;20069;-80
2021/03/03 12:25:08;;;;;;;46.70;18.05;;;13.10;56.60;;;;;;5008685;28;20120;-80
2021/03/03 12:27:34;;;;;;;42.03;17.38;;;13.20;55.90;;;;;;5006530;28;20088;-79
2021/03/03 12:29:59;;;;;;;49.97;17.48;;;13.10;55.60;;;;;;5011968;28;20481;-80
2021/03/03 12:32:25;;;;;;;49.60;17.45;;;13.10;55.70;;;;;;5012537;28;20029;-78
2021/03/03 12:34:50;;;;;;;49.28;18.25;;;13.20;55.50;;;;;;5008549;28;20235;-79
2021/03/03 12:37:16;;;;;;;46.53;17.40;;;13.20;55.80;;;;;;5006993;28;20041;-78
2021/03/03 12:39:41;;;;;;;46.60;17.92;;;13.30;55.80;;;;;;5006573;28;20100;-78